Time;durP1;ratioP1;P1;durP2;ratioP2;P2;SDS_P1;SDS_P2;PMS_P1;PMS_P2;Temp;Humidity;BMP_temperature;BMP_pressure;BME280_temperature;BME280_humidity;BME280_pressure;Samples;Min_cycle;Max_cycle;Signal;HPM_P1;HPM_P2
2021/06/18 00:01:46;;;;;;;0.00;0.00;;;;;;;;;;5090192;28;20226;-72
2021/06/18 00:04:12;;;;;;;0.00;0.00;;;;;;;;;;5086971;28;20588;-72
2021/06/18 00:06:40;;;;;;;0.00;0.00;;;;;;;;;;5102813;28;20218;-73
2021/06/18 00:09:07;;;;;;;0.00;0.00;;;;;;;;;;5088450;28;20520;-72
2021/06/18 00:11:33;;;;;;;0.00;0.00;;;;;;;;;;5093741;28;20256;-72
2021/06/18 00:13:59;;;;;;;0.00;0.00;;;;;;;;;;5097707;28;20276;-72
2021/06/18 00:16:26;;;;;;;0.00;0.00;;;;;;;;;;5103014;28;20206;-73
2021/06/18 00:18:52;;;;;;;0.00;0.00;;;;;;;;;;5093021;28;20210;-72
2021/06/18 00:21:18;;;;;;;0.00;0.00;;;;;;;;;;5088551;28;20225;-73
2021/06/18 00:23:45;;;;;;;0.00;0.00;;;;;;;;;;5091353;28;20227;-72
2021/06/18 00:26:12;;;;;;;0.00;0.00;;;;;;;;;;5099605;28;20226;-72
2021/06/18 00:28:38;;;;;;;0.00;0.00;;;;;;;;;;5092975;28;20249;-72
2021/06/18 00:31:04;;;;;;;0.00;0.00;;;;;;;;;;5081445;28;20203;-72
2021/06/18 00:33:30;;;;;;;0.00;0.00;;;;;;;;;;5086827;28;20204;-72
2021/06/18 00:35:57;;;;;;;0.00;0.00;;;;;;;;;;5091831;28;20206;-72
2021/06/18 00:38:23;;;;;;;0.00;0.00;;;;;;;;;;5100551;28;20203;-73
2021/06/18 00:40:50;;;;;;;0.00;0.00;;;;;;;;;;5090374;28;20199;-72
2021/06/18 00:43:17;;;;;;;0.00;0.00;;;;;;;;;;5102434;28;20434;-72
2021/06/18 00:45:43;;;;;;;0.00;0.00;;;;;;;;;;5096317;28;20199;-73
2021/06/18 00:48:09;;;;;;;0.00;0.00;;;;;;;;;;5082237;28;20203;-73
2021/06/18 00:50:36;;;;;;;0.00;0.00;;;;;;;;;;5082247;28;20203;-72
2021/06/18 00:53:02;;;;;;;0.00;0.00;;;;;;;;;;5092507;28;20236;-73
2021/06/18 00:55:28;;;;;;;0.00;0.00;;;;;;;;;;5095647;28;20209;-72
2021/06/18 00:57:56;;;;;;;0.00;0.00;;;;;;;;;;5093888;28;20229;-73
2021/06/18 01:00:22;;;;;;;0.00;0.00;;;;;;;;;;5082128;28;20253;-72
2021/06/18 01:02:49;;;;;;;0.10;0.10;;;;;;;;;;5089056;28;20202;-72
2021/06/18 01:05:16;;;;;;;0.00;0.00;;;;;;;;;;5089109;28;20252;-72
2021/06/18 01:07:45;;;;;;;0.00;0.00;;;;;;;;;;5100923;28;20199;-72
2021/06/18 01:10:15;;;;;;;0.00;0.00;;;;;;;;;;5083107;28;20215;-72
2021/06/18 01:12:46;;;;;;;0.00;0.00;;;;;;;;;;5100311;28;20203;-72
2021/06/18 01:15:15;;;;;;;0.00;0.00;;;;;;;;;;5090750;28;20237;-72
2021/06/18 01:17:45;;;;;;;0.00;0.00;;;;;;;;;;5085019;28;20202;-72
2021/06/18 01:20:29;;;;;;;0.10;0.10;;;;;;;;;;5092273;28;20253;-72
2021/06/18 01:22:56;;;;;;;0.00;0.00;;;;;;;;;;5087010;28;20232;-71
2021/06/18 01:25:25;;;;;;;0.00;0.00;;;;;;;;;;5083374;28;20445;-72
2021/06/18 01:27:53;;;;;;;0.00;0.00;;;;;;;;;;5094066;28;20207;-72
2021/06/18 01:30:22;;;;;;;0.00;0.00;;;;;;;;;;5097831;28;20250;-72
2021/06/18 01:32:53;;;;;;;0.00;0.00;;;;;;;;;;5095898;28;20257;-72
2021/06/18 01:35:21;;;;;;;0.00;0.00;;;;;;;;;;5092471;28;20260;-72
2021/06/18 01:37:49;;;;;;;0.00;0.00;;;;;;;;;;5087531;28;20260;-71
2021/06/18 01:40:16;;;;;;;0.00;0.00;;;;;;;;;;5101960;28;20243;-72
2021/06/18 01:42:43;;;;;;;0.00;0.00;;;;;;;;;;5103368;28;20373;-72
2021/06/18 01:45:11;;;;;;;0.00;0.00;;;;;;;;;;5097981;28;20219;-73
2021/06/18 01:47:40;;;;;;;0.00;0.00;;;;;;;;;;5098833;28;20209;-73
2021/06/18 01:50:07;;;;;;;0.00;0.00;;;;;;;;;;5090838;28;20224;-73
2021/06/18 01:52:34;;;;;;;0.00;0.00;;;;;;;;;;5105502;28;20207;-72
2021/06/18 01:55:02;;;;;;;0.00;0.00;;;;;;;;;;5105307;28;20239;-72
2021/06/18 01:57:29;;;;;;;0.00;0.00;;;;;;;;;;5105351;28;20245;-73
2021/06/18 01:59:56;;;;;;;0.00;0.00;;;;;;;;;;5105219;28;20249;-72
2021/06/18 02:02:23;;;;;;;0.00;0.00;;;;;;;;;;5105166;28;20539;-72
2021/06/18 02:04:52;;;;;;;0.10;0.10;;;;;;;;;;5104434;28;20390;-72
2021/06/18 02:07:19;;;;;;;0.03;0.03;;;;;;;;;;5091902;28;20377;-72
2021/06/18 02:09:46;;;;;;;0.00;0.00;;;;;;;;;;5091700;28;20343;-72
2021/06/18 02:12:13;;;;;;;0.00;0.00;;;;;;;;;;5099027;28;20230;-73
2021/06/18 02:14:39;;;;;;;0.00;0.00;;;;;;;;;;5096496;28;20202;-72
2021/06/18 02:17:06;;;;;;;0.00;0.00;;;;;;;;;;5104652;28;20199;-72
2021/06/18 02:19:34;;;;;;;0.00;0.00;;;;;;;;;;5105317;28;20304;-73
2021/06/18 02:22:04;;;;;;;0.00;0.00;;;;;;;;;;5104767;28;20481;-72
2021/06/18 02:24:31;;;;;;;0.10;0.10;;;;;;;;;;5104945;28;20231;-72
2021/06/18 02:26:58;;;;;;;0.00;0.00;;;;;;;;;;5104374;28;20432;-72
2021/06/18 02:29:25;;;;;;;0.00;0.00;;;;;;;;;;5104786;28;20486;-73
2021/06/18 02:31:52;;;;;;;0.00;0.00;;;;;;;;;;5104646;28;20202;-72
2021/06/18 02:34:18;;;;;;;0.00;0.00;;;;;;;;;;5086047;28;20257;-72
2021/06/18 02:36:44;;;;;;;0.00;0.00;;;;;;;;;;5085041;28;20203;-72
2021/06/18 02:39:12;;;;;;;0.00;0.00;;;;;;;;;;5101088;28;20263;-72
2021/06/18 02:41:39;;;;;;;0.00;0.00;;;;;;;;;;5104888;28;20271;-72
2021/06/18 02:44:06;;;;;;;0.00;0.00;;;;;;;;;;5104675;28;20284;-72
2021/06/18 02:46:35;;;;;;;0.00;0.00;;;;;;;;;;5104731;28;20543;-72
2021/06/18 02:49:02;;;;;;;0.00;0.00;;;;;;;;;;5104329;28;20367;-73
2021/06/18 02:51:33;;;;;;;0.00;0.00;;;;;;;;;;5098515;28;20210;-72
2021/06/18 02:54:04;;;;;;;0.00;0.00;;;;;;;;;;5096278;28;20371;-73
2021/06/18 02:56:37;;;;;;;0.00;0.00;;;;;;;;;;5104232;28;20247;-72
2021/06/18 02:59:08;;;;;;;0.00;0.00;;;;;;;;;;5104375;28;20206;-73
2021/06/18 03:01:37;;;;;;;0.00;0.00;;;;;;;;;;5099038;28;20346;-72
2021/06/18 03:04:04;;;;;;;0.00;0.00;;;;;;;;;;5095422;28;20230;-72
2021/06/18 03:06:31;;;;;;;0.00;0.00;;;;;;;;;;5103897;28;20199;-72
2021/06/18 03:08:59;;;;;;;0.00;0.00;;;;;;;;;;5104208;28;20260;-73
2021/06/18 03:11:27;;;;;;;0.00;0.00;;;;;;;;;;5089365;28;20224;-73
2021/06/18 03:13:56;;;;;;;0.00;0.00;;;;;;;;;;5103600;28;20394;-72
2021/06/18 03:16:23;;;;;;;0.00;0.00;;;;;;;;;;5089485;28;20532;-72
2021/06/18 03:18:50;;;;;;;0.10;0.10;;;;;;;;;;5103847;28;20435;-72
2021/06/18 03:21:17;;;;;;;0.00;0.00;;;;;;;;;;5090984;28;20244;-72
2021/06/18 03:23:43;;;;;;;0.00;0.00;;;;;;;;;;5102682;28;20271;-73
2021/06/18 03:26:10;;;;;;;0.00;0.00;;;;;;;;;;5103590;28;20647;-73
2021/06/18 03:28:37;;;;;;;0.00;0.00;;;;;;;;;;5089386;28;20519;-72
2021/06/18 03:31:08;;;;;;;0.00;0.00;;;;;;;;;;5098086;28;20199;-72
2021/06/18 03:33:35;;;;;;;0.00;0.00;;;;;;;;;;5095585;28;20327;-72
2021/06/18 03:36:01;;;;;;;0.00;0.00;;;;;;;;;;5088804;28;20210;-72
2021/06/18 03:38:27;;;;;;;0.00;0.00;;;;;;;;;;5092955;28;20221;-72
2021/06/18 03:40:54;;;;;;;0.00;0.00;;;;;;;;;;5100135;28;20373;-73
2021/06/18 03:43:20;;;;;;;0.00;0.00;;;;;;;;;;5102899;28;20325;-73
2021/06/18 03:45:49;;;;;;;0.10;0.10;;;;;;;;;;5103149;28;20222;-72
2021/06/18 03:48:17;;;;;;;0.00;0.00;;;;;;;;;;5096152;28;20228;-72
2021/06/18 03:50:44;;;;;;;0.00;0.00;;;;;;;;;;5096649;28;20214;-73
2021/06/18 03:53:10;;;;;;;0.00;0.00;;;;;;;;;;5103139;28;20249;-72
2021/06/18 03:55:36;;;;;;;0.00;0.00;;;;;;;;;;5103333;28;20247;-73
2021/06/18 03:58:04;;;;;;;0.00;0.00;;;;;;;;;;5103053;28;20243;-71
2021/06/18 04:00:34;;;;;;;0.05;0.05;;;;;;;;;;5103009;28;20205;-72
2021/06/18 04:03:01;;;;;;;0.00;0.00;;;;;;;;;;5102415;28;20195;-73
2021/06/18 04:05:30;;;;;;;0.00;0.00;;;;;;;;;;5092799;28;20542;-72
2021/06/18 04:07:57;;;;;;;0.00;0.00;;;;;;;;;;5097037;28;20207;-72
2021/06/18 04:10:24;;;;;;;0.00;0.00;;;;;;;;;;5102489;28;20489;-73
2021/06/18 04:12:53;;;;;;;0.00;0.00;;;;;;;;;;5102835;28;20247;-72
2021/06/18 04:15:21;;;;;;;0.00;0.00;;;;;;;;;;5102151;28;20203;-72
2021/06/18 04:17:48;;;;;;;0.00;0.00;;;;;;;;;;5102675;28;20369;-72
2021/06/18 04:20:15;;;;;;;0.00;0.00;;;;;;;;;;5102283;28;20210;-74
2021/06/18 04:22:42;;;;;;;0.00;0.00;;;;;;;;;;5102726;28;20214;-72
2021/06/18 04:25:09;;;;;;;0.00;0.00;;;;;;;;;;5101981;28;20234;-74
2021/06/18 04:27:35;;;;;;;0.00;0.00;;;;;;;;;;5092832;28;20206;-72
2021/06/18 04:30:02;;;;;;;0.05;0.05;;;;;;;;;;5096996;28;20206;-71
2021/06/18 04:32:28;;;;;;;0.00;0.00;;;;;;;;;;5098933;28;20206;-71
2021/06/18 04:34:54;;;;;;;0.00;0.00;;;;;;;;;;5081824;28;20207;-71
2021/06/18 04:37:21;;;;;;;0.00;0.00;;;;;;;;;;5082577;28;20240;-72
2021/06/18 04:39:48;;;;;;;0.15;0.15;;;;;;;;;;5102132;28;20286;-71
2021/06/18 04:42:14;;;;;;;0.00;0.00;;;;;;;;;;5101936;28;20263;-70
2021/06/18 04:44:41;;;;;;;0.00;0.00;;;;;;;;;;5101641;28;20411;-72
2021/06/18 04:47:07;;;;;;;0.20;0.20;;;;;;;;;;5101811;28;20274;-72
2021/06/18 04:49:33;;;;;;;0.00;0.00;;;;;;;;;;5101525;28;20233;-71
2021/06/18 04:52:00;;;;;;;0.00;0.00;;;;;;;;;;5101721;28;20259;-73
2021/06/18 04:54:26;;;;;;;0.10;0.10;;;;;;;;;;5101876;28;20210;-72
2021/06/18 04:56:53;;;;;;;0.00;0.00;;;;;;;;;;5101638;28;20244;-73
2021/06/18 04:59:20;;;;;;;0.10;0.10;;;;;;;;;;5101694;28;20213;-72
2021/06/18 05:01:46;;;;;;;0.10;0.10;;;;;;;;;;5103137;28;20385;-73
2021/06/18 05:04:13;;;;;;;0.00;0.00;;;;;;;;;;5101787;28;20518;-73
2021/06/18 05:06:39;;;;;;;0.00;0.00;;;;;;;;;;5101312;28;20201;-72
2021/06/18 05:09:06;;;;;;;0.08;0.08;;;;;;;;;;5101386;28;20288;-72
2021/06/18 05:11:32;;;;;;;0.00;0.00;;;;;;;;;;5101394;28;20218;-73
2021/06/18 05:13:59;;;;;;;0.00;0.00;;;;;;;;;;5101357;28;20203;-73
2021/06/18 05:16:26;;;;;;;0.00;0.00;;;;;;;;;;5101669;28;20390;-73
2021/06/18 05:18:52;;;;;;;0.00;0.00;;;;;;;;;;5104755;28;20201;-73
2021/06/18 05:21:18;;;;;;;0.00;0.00;;;;;;;;;;5106131;28;20248;-73
2021/06/18 05:23:45;;;;;;;0.00;0.00;;;;;;;;;;5105792;28;20236;-73
2021/06/18 05:26:11;;;;;;;0.10;0.10;;;;;;;;;;5105370;28;20230;-73
2021/06/18 05:28:37;;;;;;;0.00;0.00;;;;;;;;;;5102158;28;20207;-73
2021/06/18 05:31:05;;;;;;;0.10;0.10;;;;;;;;;;5091466;28;20245;-72
2021/06/18 05:33:32;;;;;;;0.00;0.00;;;;;;;;;;5093836;28;20233;-73
2021/06/18 05:35:58;;;;;;;0.10;0.10;;;;;;;;;;5088886;28;20279;-72
2021/06/18 05:38:24;;;;;;;0.00;0.00;;;;;;;;;;5104895;28;20218;-72
2021/06/18 05:40:52;;;;;;;0.00;0.00;;;;;;;;;;5104715;28;20218;-72
2021/06/18 05:43:19;;;;;;;0.10;0.10;;;;;;;;;;5104916;28;20262;-72
2021/06/18 05:45:45;;;;;;;0.00;0.00;;;;;;;;;;5104918;28;20218;-72
2021/06/18 05:48:13;;;;;;;0.10;0.10;;;;;;;;;;5105281;28;20199;-73
2021/06/18 05:50:39;;;;;;;0.00;0.00;;;;;;;;;;5104954;28;20350;-72
2021/06/18 05:53:05;;;;;;;0.00;0.00;;;;;;;;;;5105322;28;20519;-72
2021/06/18 05:55:31;;;;;;;0.10;0.10;;;;;;;;;;5093837;28;20207;-73
2021/06/18 05:57:58;;;;;;;0.10;0.10;;;;;;;;;;5102129;28;20270;-72
2021/06/18 06:00:24;;;;;;;0.00;0.00;;;;;;;;;;5104869;28;20218;-73
2021/06/18 06:02:50;;;;;;;0.00;0.00;;;;;;;;;;5096357;28;20248;-71
2021/06/18 06:05:18;;;;;;;0.00;0.00;;;;;;;;;;5097483;28;20233;-72
2021/06/18 06:07:47;;;;;;;0.00;0.00;;;;;;;;;;5094637;28;20222;-71
2021/06/18 06:10:14;;;;;;;0.00;0.00;;;;;;;;;;5090327;28;20214;-72
2021/06/18 06:12:41;;;;;;;0.03;0.03;;;;;;;;;;5091803;28;20298;-71
2021/06/18 06:15:07;;;;;;;0.05;0.05;;;;;;;;;;5090624;28;20297;-72
2021/06/18 06:17:34;;;;;;;0.00;0.00;;;;;;;;;;5085631;28;20423;-72
2021/06/18 06:20:00;;;;;;;0.00;0.00;;;;;;;;;;5093125;28;20207;-63
2021/06/18 06:22:28;;;;;;;0.38;0.38;;;;;;;;;;5088673;28;20207;-63
2021/06/18 06:24:54;;;;;;;0.00;0.00;;;;;;;;;;5091428;28;20296;-64
2021/06/18 06:27:20;;;;;;;0.10;0.10;;;;;;;;;;5092484;28;20203;-64
2021/06/18 06:29:47;;;;;;;0.00;0.00;;;;;;;;;;5089851;28;20203;-64
2021/06/18 06:32:13;;;;;;;0.00;0.00;;;;;;;;;;5102560;28;20209;-65
2021/06/18 06:34:39;;;;;;;0.00;0.00;;;;;;;;;;5102330;28;20309;-67
2021/06/18 06:37:05;;;;;;;0.00;0.00;;;;;;;;;;5095953;28;20202;-64
2021/06/18 06:39:33;;;;;;;0.05;0.05;;;;;;;;;;5092840;28;20233;-65
2021/06/18 06:42:01;;;;;;;0.00;0.00;;;;;;;;;;5087714;28;20249;-64
2021/06/18 06:44:27;;;;;;;0.13;0.13;;;;;;;;;;5090802;28;20207;-65
2021/06/18 06:46:53;;;;;;;0.00;0.00;;;;;;;;;;5090286;28;20264;-63
2021/06/18 06:49:19;;;;;;;0.00;0.00;;;;;;;;;;5100981;28;20379;-64
2021/06/18 06:51:46;;;;;;;0.00;0.00;;;;;;;;;;5104722;28;20341;-64
2021/06/18 06:54:12;;;;;;;0.00;0.00;;;;;;;;;;5085969;28;20223;-64
2021/06/18 06:56:39;;;;;;;0.00;0.00;;;;;;;;;;5100263;28;20199;-72
2021/06/18 06:59:06;;;;;;;0.00;0.00;;;;;;;;;;5101676;28;20551;-73
2021/06/18 07:01:32;;;;;;;0.00;0.00;;;;;;;;;;5093241;28;20478;-72
2021/06/18 07:04:00;;;;;;;0.00;0.00;;;;;;;;;;5103500;28;20221;-72
2021/06/18 07:06:27;;;;;;;0.00;0.00;;;;;;;;;;5101734;28;20461;-72
2021/06/18 07:08:53;;;;;;;0.00;0.00;;;;;;;;;;5095182;28;20203;-73
2021/06/18 07:11:19;;;;;;;0.05;0.05;;;;;;;;;;5089094;28;20214;-72
2021/06/18 07:13:48;;;;;;;0.00;0.00;;;;;;;;;;5096972;28;20479;-70
2021/06/18 07:16:14;;;;;;;0.00;0.00;;;;;;;;;;5098223;28;20411;-72
2021/06/18 07:18:41;;;;;;;0.00;0.00;;;;;;;;;;5103913;28;20270;-72
2021/06/18 07:21:07;;;;;;;0.00;0.00;;;;;;;;;;5097848;28;20207;-72
2021/06/18 07:23:33;;;;;;;0.00;0.00;;;;;;;;;;5101688;28;20198;-71
2021/06/18 07:26:00;;;;;;;2.63;1.75;;;;;;;;;;5103637;28;20264;-72
2021/06/18 07:28:26;;;;;;;0.00;0.00;;;;;;;;;;5089434;28;20199;-73
2021/06/18 07:30:55;;;;;;;0.00;0.00;;;;;;;;;;5101744;28;20225;-72
2021/06/18 07:33:21;;;;;;;0.00;0.00;;;;;;;;;;5098564;28;20203;-75
2021/06/18 07:35:47;;;;;;;0.03;0.03;;;;;;;;;;5100614;28;20286;-73
2021/06/18 07:38:14;;;;;;;0.00;0.00;;;;;;;;;;5094801;28;20222;-74
2021/06/18 07:40:40;;;;;;;0.10;0.10;;;;;;;;;;5103392;28;20459;-73
2021/06/18 07:43:07;;;;;;;0.03;0.03;;;;;;;;;;5097030;28;20483;-72
2021/06/18 07:45:33;;;;;;;0.00;0.00;;;;;;;;;;5097891;28;20357;-72
2021/06/18 07:48:02;;;;;;;0.00;0.00;;;;;;;;;;5084396;28;20191;-72
2021/06/18 07:50:28;;;;;;;0.00;0.00;;;;;;;;;;5088712;28;20298;-72
2021/06/18 07:52:54;;;;;;;0.00;0.00;;;;;;;;;;5083251;28;20215;-72
2021/06/18 07:55:23;;;;;;;0.00;0.00;;;;;;;;;;5096760;28;20419;-72
2021/06/18 07:57:50;;;;;;;0.00;0.00;;;;;;;;;;5096691;28;20207;-72
2021/06/18 08:00:16;;;;;;;0.40;0.40;;;;;;;;;;5097875;28;20199;-72
2021/06/18 08:02:43;;;;;;;0.22;0.22;;;;;;;;;;5090146;28;20202;-72
2021/06/18 08:05:11;;;;;;;0.00;0.00;;;;;;;;;;5089930;28;20322;-72
2021/06/18 08:07:38;;;;;;;0.00;0.00;;;;;;;;;;5091587;28;20211;-71
2021/06/18 08:10:05;;;;;;;0.00;0.00;;;;;;;;;;5093423;28;20261;-72
2021/06/18 08:12:32;;;;;;;0.00;0.00;;;;;;;;;;5090630;28;20198;-71
2021/06/18 08:14:58;;;;;;;0.00;0.00;;;;;;;;;;5095948;28;20248;-71
2021/06/18 08:17:25;;;;;;;0.00;0.00;;;;;;;;;;5088780;28;20234;-73
2021/06/18 08:19:52;;;;;;;0.00;0.00;;;;;;;;;;5090212;28;20211;-72
2021/06/18 08:22:19;;;;;;;0.00;0.00;;;;;;;;;;5093622;28;20207;-71
2021/06/18 08:24:46;;;;;;;0.00;0.00;;;;;;;;;;5096510;28;20232;-70
2021/06/18 08:27:12;;;;;;;0.00;0.00;;;;;;;;;;5089332;28;20295;-70
2021/06/18 08:29:39;;;;;;;0.10;0.10;;;;;;;;;;5093887;28;20205;-71
2021/06/18 08:32:05;;;;;;;0.00;0.00;;;;;;;;;;5097010;28;20269;-71
2021/06/18 08:34:32;;;;;;;0.00;0.00;;;;;;;;;;5096975;28;20325;-71
2021/06/18 08:36:58;;;;;;;0.00;0.00;;;;;;;;;;5093376;28;20196;-71
2021/06/18 08:39:26;;;;;;;0.00;0.00;;;;;;;;;;5085715;28;20207;-70
2021/06/18 08:41:52;;;;;;;0.00;0.00;;;;;;;;;;5091714;28;20204;-71
2021/06/18 08:44:19;;;;;;;0.00;0.00;;;;;;;;;;5096720;28;20207;-72
2021/06/18 08:46:46;;;;;;;0.00;0.00;;;;;;;;;;5090577;28;20223;-72
2021/06/18 08:49:13;;;;;;;0.00;0.00;;;;;;;;;;5095452;28;20423;-71
2021/06/18 08:51:40;;;;;;;0.00;0.00;;;;;;;;;;5088989;28;20215;-71
2021/06/18 08:54:06;;;;;;;0.00;0.00;;;;;;;;;;5095211;28;20198;-71
2021/06/18 08:56:34;;;;;;;0.10;0.10;;;;;;;;;;5099952;28;20198;-70
2021/06/18 08:59:00;;;;;;;0.00;0.00;;;;;;;;;;5094621;28;20207;-72
2021/06/18 09:01:27;;;;;;;0.00;0.00;;;;;;;;;;5101304;28;20209;-72
2021/06/18 09:03:55;;;;;;;0.00;0.00;;;;;;;;;;5101190;28;20203;-72
2021/06/18 09:06:29;;;;;;;0.00;0.00;;;;;;;;;;5106053;28;20230;-72
2021/06/18 09:09:11;;;;;;;0.00;0.00;;;;;;;;;;5106355;28;20203;-71
2021/06/18 09:11:40;;;;;;;0.00;0.00;;;;;;;;;;5097185;28;20222;-71
2021/06/18 09:14:17;;;;;;;0.00;0.00;;;;;;;;;;5106154;28;20209;-72
2021/06/18 09:16:43;;;;;;;0.00;0.00;;;;;;;;;;5093877;28;20207;-71
2021/06/18 09:19:24;;;;;;;0.00;0.00;;;;;;;;;;5092274;28;20200;-71
2021/06/18 09:21:57;;;;;;;0.00;0.00;;;;;;;;;;5090151;28;20482;-72
2021/06/18 09:24:26;;;;;;;0.00;0.00;;;;;;;;;;5085930;28;20237;-72
2021/06/18 09:26:54;;;;;;;0.00;0.00;;;;;;;;;;5091679;28;20518;-72
2021/06/18 09:29:21;;;;;;;0.00;0.00;;;;;;;;;;5090106;28;20207;-72
2021/06/18 09:31:49;;;;;;;0.00;0.00;;;;;;;;;;5085662;28;20235;-72
2021/06/18 09:34:16;;;;;;;0.00;0.00;;;;;;;;;;5100020;28;20253;-72
2021/06/18 09:36:42;;;;;;;0.00;0.00;;;;;;;;;;5096078;28;20474;-72
2021/06/18 09:39:13;;;;;;;0.00;0.00;;;;;;;;;;5106288;28;20202;-72
2021/06/18 09:41:40;;;;;;;0.00;0.00;;;;;;;;;;5106483;28;20453;-72
2021/06/18 09:44:09;;;;;;;0.00;0.00;;;;;;;;;;5105677;28;20203;-71
2021/06/18 09:46:45;;;;;;;0.00;0.00;;;;;;;;;;5098285;28;20233;-71
2021/06/18 09:49:13;;;;;;;0.00;0.00;;;;;;;;;;5099539;28;20199;-72
2021/06/18 09:51:56;;;;;;;0.00;0.00;;;;;;;;;;5092469;28;20304;-71
2021/06/18 09:54:22;;;;;;;0.00;0.00;;;;;;;;;;5102322;28;20199;-73
2021/06/18 09:56:48;;;;;;;0.03;0.03;;;;;;;;;;5105420;28;20210;-72
2021/06/18 09:59:23;;;;;;;0.00;0.00;;;;;;;;;;5105475;28;20202;-72
2021/06/18 10:01:54;;;;;;;0.00;0.00;;;;;;;;;;5091707;28;20202;-72
2021/06/18 10:04:23;;;;;;;0.00;0.00;;;;;;;;;;5092177;28;20203;-72
2021/06/18 10:06:49;;;;;;;0.00;0.00;;;;;;;;;;5091253;28;20231;-72
2021/06/18 10:09:16;;;;;;;0.00;0.00;;;;;;;;;;5098490;28;20481;-72
2021/06/18 10:11:45;;;;;;;0.00;0.00;;;;;;;;;;5101072;28;20225;-71
2021/06/18 10:14:12;;;;;;;0.00;0.00;;;;;;;;;;5103342;28;20213;-71
2021/06/18 10:16:40;;;;;;;0.00;0.00;;;;;;;;;;5098946;28;20195;-72
2021/06/18 10:19:06;;;;;;;0.00;0.00;;;;;;;;;;5096343;28;20202;-71
2021/06/18 10:21:35;;;;;;;0.00;0.00;;;;;;;;;;5100860;28;20203;-71
2021/06/18 10:24:03;;;;;;;0.10;0.10;;;;;;;;;;5103227;28;20202;-72
2021/06/18 10:26:30;;;;;;;0.00;0.00;;;;;;;;;;5105123;28;20253;-72
2021/06/18 10:28:58;;;;;;;0.00;0.00;;;;;;;;;;5103802;28;20498;-72
2021/06/18 10:31:31;;;;;;;0.00;0.00;;;;;;;;;;5103216;28;20203;-72
2021/06/18 10:34:05;;;;;;;0.00;0.00;;;;;;;;;;5089142;28;20210;-71
2021/06/18 10:36:32;;;;;;;0.00;0.00;;;;;;;;;;5094595;28;20232;-71
2021/06/18 10:39:03;;;;;;;0.00;0.00;;;;;;;;;;5089951;28;20203;-71
2021/06/18 10:41:29;;;;;;;0.00;0.00;;;;;;;;;;5098974;28;20199;-71
2021/06/18 10:43:57;;;;;;;0.00;0.00;;;;;;;;;;5095968;28;20462;-71
2021/06/18 10:46:28;;;;;;;0.00;0.00;;;;;;;;;;5094946;28;20226;-71
2021/06/18 10:48:59;;;;;;;0.00;0.00;;;;;;;;;;5094565;28;20443;-71
2021/06/18 10:51:40;;;;;;;0.00;0.00;;;;;;;;;;5099180;28;20217;-72
2021/06/18 10:54:09;;;;;;;0.00;0.00;;;;;;;;;;5096152;28;20195;-71
2021/06/18 10:56:54;;;;;;;0.00;0.00;;;;;;;;;;5099749;28;20214;-73
2021/06/18 10:59:27;;;;;;;0.00;0.00;;;;;;;;;;5099876;28;20210;-72
2021/06/18 11:01:54;;;;;;;0.00;0.00;;;;;;;;;;5088944;28;20196;-70
2021/06/18 11:04:36;;;;;;;0.00;0.00;;;;;;;;;;5088983;28;20210;-72
2021/06/18 11:07:18;;;;;;;0.00;0.00;;;;;;;;;;5104347;28;20214;-72
2021/06/18 11:09:45;;;;;;;0.55;0.10;;;;;;;;;;5089777;28;20248;-71
2021/06/18 11:12:27;;;;;;;0.47;0.47;;;;;;;;;;5093943;28;20203;-72
2021/06/18 11:14:54;;;;;;;0.00;0.00;;;;;;;;;;5078685;28;20203;-72
2021/06/18 11:17:36;;;;;;;0.00;0.00;;;;;;;;;;5093888;28;20200;-71
2021/06/18 11:20:02;;;;;;;0.00;0.00;;;;;;;;;;5096481;28;20216;-72
2021/06/18 11:22:35;;;;;;;0.00;0.00;;;;;;;;;;5100593;28;20202;-71
2021/06/18 11:25:02;;;;;;;0.00;0.00;;;;;;;;;;5100692;28;20545;-70
2021/06/18 11:27:30;;;;;;;0.00;0.00;;;;;;;;;;5097672;28;20364;-71
2021/06/18 11:30:18;;;;;;;0.00;0.00;;;;;;;;;;5099559;28;20258;-70
2021/06/18 11:32:45;;;;;;;0.10;0.10;;;;;;;;;;5097019;28;20203;-70
2021/06/18 11:35:32;;;;;;;0.00;0.00;;;;;;;;;;5102774;28;20206;-71
2021/06/18 11:38:00;;;;;;;0.00;0.00;;;;;;;;;;5099921;28;20227;-71
2021/06/18 11:40:27;;;;;;;0.00;0.00;;;;;;;;;;5102504;28;20207;-72
2021/06/18 11:42:54;;;;;;;0.00;0.00;;;;;;;;;;5100778;28;20214;-71
2021/06/18 11:45:20;;;;;;;0.03;0.03;;;;;;;;;;5102041;28;20238;-71
2021/06/18 11:47:47;;;;;;;0.00;0.00;;;;;;;;;;5099613;28;20310;-71
2021/06/18 11:50:13;;;;;;;0.00;0.00;;;;;;;;;;5089637;28;20199;-71
2021/06/18 11:52:40;;;;;;;0.00;0.00;;;;;;;;;;5091106;28;20256;-72
2021/06/18 11:55:08;;;;;;;0.00;0.00;;;;;;;;;;5096532;28;20203;-71
2021/06/18 11:57:36;;;;;;;0.00;0.00;;;;;;;;;;5097452;28;20198;-72
2021/06/18 12:00:04;;;;;;;0.00;0.00;;;;;;;;;;5100060;28;20240;-71
2021/06/18 12:02:34;;;;;;;0.00;0.00;;;;;;;;;;5100679;28;20207;-72
2021/06/18 12:05:05;;;;;;;0.00;0.00;;;;;;;;;;5101111;28;20298;-72
2021/06/18 12:07:32;;;;;;;0.00;0.00;;;;;;;;;;5093563;28;20474;-71
2021/06/18 12:09:59;;;;;;;0.00;0.00;;;;;;;;;;5095162;28;20210;-71
2021/06/18 12:12:27;;;;;;;0.00;0.00;;;;;;;;;;5094608;28;20207;-71
2021/06/18 12:14:57;;;;;;;0.00;0.00;;;;;;;;;;5092139;28;20213;-71
2021/06/18 12:17:23;;;;;;;0.22;0.22;;;;;;;;;;5093117;28;20211;-71
2021/06/18 12:19:50;;;;;;;0.00;0.00;;;;;;;;;;5096195;28;20204;-71
2021/06/18 12:22:17;;;;;;;0.00;0.00;;;;;;;;;;5097636;28;20267;-70
2021/06/18 12:24:44;;;;;;;0.10;0.10;;;;;;;;;;5095334;28;20268;-70
2021/06/18 12:27:11;;;;;;;0.00;0.00;;;;;;;;;;5092868;28;20218;-71
2021/06/18 12:29:40;;;;;;;0.00;0.00;;;;;;;;;;5095147;28;20592;-72
2021/06/18 12:32:07;;;;;;;0.00;0.00;;;;;;;;;;5096185;28;20270;-72
2021/06/18 12:34:33;;;;;;;0.00;0.00;;;;;;;;;;5095852;28;20221;-71
2021/06/18 12:37:01;;;;;;;0.00;0.00;;;;;;;;;;5101790;28;20363;-71
2021/06/18 12:39:27;;;;;;;0.00;0.00;;;;;;;;;;5095937;28;20371;-71
2021/06/18 12:41:54;;;;;;;0.00;0.00;;;;;;;;;;5096190;28;20206;-71
2021/06/18 12:44:29;;;;;;;0.00;0.00;;;;;;;;;;5094505;28;20412;-72
2021/06/18 12:46:57;;;;;;;0.00;0.00;;;;;;;;;;5099176;28;20256;-72
2021/06/18 12:49:27;;;;;;;0.00;0.00;;;;;;;;;;5098427;28;20225;-71
2021/06/18 12:52:07;;;;;;;0.00;0.00;;;;;;;;;;5097400;28;20241;-72
2021/06/18 12:54:33;;;;;;;0.00;0.00;;;;;;;;;;5094489;28;20514;-72
2021/06/18 12:57:00;;;;;;;0.00;0.00;;;;;;;;;;5091997;28;20195;-69
2021/06/18 12:59:35;;;;;;;5.03;4.65;;;;;;;;;;5086549;28;20210;-73
2021/06/18 13:02:03;;;;;;;0.00;0.00;;;;;;;;;;5090354;28;20262;-69
2021/06/18 13:04:32;;;;;;;0.00;0.00;;;;;;;;;;5093659;28;20207;-71
2021/06/18 13:06:58;;;;;;;0.00;0.00;;;;;;;;;;5099367;28;20388;-72
2021/06/18 13:09:32;;;;;;;0.00;0.00;;;;;;;;;;5098978;28;20206;-71
2021/06/18 13:11:59;;;;;;;0.00;0.00;;;;;;;;;;5099042;28;20213;-70
2021/06/18 13:14:26;;;;;;;0.00;0.00;;;;;;;;;;5097022;28;20211;-71
2021/06/18 13:16:53;;;;;;;0.00;0.00;;;;;;;;;;5095769;28;20274;-72
2021/06/18 13:19:21;;;;;;;0.00;0.00;;;;;;;;;;5094585;28;20276;-72
2021/06/18 13:21:50;;;;;;;0.00;0.00;;;;;;;;;;5095123;28;20507;-72
2021/06/18 13:24:17;;;;;;;0.00;0.00;;;;;;;;;;5095960;28;20358;-71
2021/06/18 13:26:44;;;;;;;0.00;0.00;;;;;;;;;;5096805;28;20206;-72
2021/06/18 13:29:11;;;;;;;0.00;0.00;;;;;;;;;;5095188;28;20206;-71
2021/06/18 13:31:37;;;;;;;0.75;0.75;;;;;;;;;;5095285;28;20210;-71
2021/06/18 13:34:06;;;;;;;0.00;0.00;;;;;;;;;;5092408;28;20200;-71
2021/06/18 13:36:35;;;;;;;0.00;0.00;;;;;;;;;;5096043;28;20210;-71
2021/06/18 13:39:03;;;;;;;0.00;0.00;;;;;;;;;;5098505;28;20299;-71
2021/06/18 13:41:36;;;;;;;0.00;0.00;;;;;;;;;;5098841;28;20226;-71
2021/06/18 13:44:02;;;;;;;0.00;0.00;;;;;;;;;;5098893;28;20214;-70
2021/06/18 13:46:29;;;;;;;0.00;0.00;;;;;;;;;;5098852;28;20225;-73
2021/06/18 13:48:55;;;;;;;0.20;0.20;;;;;;;;;;5101445;28;20227;-73
2021/06/18 13:51:21;;;;;;;0.00;0.00;;;;;;;;;;5099869;28;20285;-71
2021/06/18 13:53:49;;;;;;;0.28;0.28;;;;;;;;;;5102294;28;20217;-73
2021/06/18 13:56:15;;;;;;;0.00;0.00;;;;;;;;;;5094599;28;20274;-74
2021/06/18 13:58:41;;;;;;;0.00;0.00;;;;;;;;;;5100736;28;20202;-73
2021/06/18 14:01:08;;;;;;;0.00;0.00;;;;;;;;;;5100792;28;20203;-73
2021/06/18 14:03:34;;;;;;;0.00;0.00;;;;;;;;;;5099896;28;20362;-74
2021/06/18 14:06:00;;;;;;;0.00;0.00;;;;;;;;;;5100354;28;20387;-73
2021/06/18 14:08:27;;;;;;;0.08;0.08;;;;;;;;;;5098337;28;20227;-72
2021/06/18 14:10:55;;;;;;;0.00;0.00;;;;;;;;;;5098725;28;20230;-72
2021/06/18 14:13:21;;;;;;;0.00;0.00;;;;;;;;;;5097046;28;20286;-73
2021/06/18 14:15:50;;;;;;;0.00;0.00;;;;;;;;;;5097885;28;20203;-72
2021/06/18 14:18:17;;;;;;;0.00;0.00;;;;;;;;;;5095029;28;20215;-73
2021/06/18 14:20:44;;;;;;;0.00;0.00;;;;;;;;;;5095780;28;20204;-70
2021/06/18 14:23:10;;;;;;;0.00;0.00;;;;;;;;;;5096728;28;20260;-71
2021/06/18 14:25:37;;;;;;;0.00;0.00;;;;;;;;;;5096618;28;20252;-71
2021/06/18 14:28:05;;;;;;;0.00;0.00;;;;;;;;;;5096571;28;20480;-71
2021/06/18 14:30:31;;;;;;;0.20;0.20;;;;;;;;;;5092277;28;20214;-72
2021/06/18 14:32:58;;;;;;;0.00;0.00;;;;;;;;;;5095811;28;20446;-73
2021/06/18 14:35:25;;;;;;;0.00;0.00;;;;;;;;;;5093860;28;20569;-71
2021/06/18 14:37:51;;;;;;;0.00;0.00;;;;;;;;;;5093216;28;20210;-70
2021/06/18 14:40:18;;;;;;;0.00;0.00;;;;;;;;;;5089986;28;20207;-70
2021/06/18 14:42:44;;;;;;;0.00;0.00;;;;;;;;;;5091792;28;20250;-70
2021/06/18 14:45:13;;;;;;;0.00;0.00;;;;;;;;;;5092797;28;20210;-71
2021/06/18 14:47:39;;;;;;;0.00;0.00;;;;;;;;;;5094607;28;20227;-72